Time;durP1;ratioP1;P1;durP2;ratioP2;P2;SDS_P1;SDS_P2;PMS_P1;PMS_P2;Temp;Humidity;BMP_temperature;BMP_pressure;BME280_temperature;BME280_humidity;BME280_pressure;Samples;Min_cycle;Max_cycle;Signal;HPM_P1;HPM_P2
2023/01/20 00:00:36;;;;;;;3.80;3.63;;;16.60;64.60;;;;;;5086945;28;43466;-73
2023/01/20 00:03:04;;;;;;;3.87;3.67;;;16.60;64.60;;;;;;5081209;27;43700;-74
2023/01/20 00:05:32;;;;;;;4.43;4.23;;;16.60;64.60;;;;;;5081348;28;43713;-74
2023/01/20 00:08:00;;;;;;;4.00;3.90;;;16.60;64.60;;;;;;5082754;28;43951;-74
2023/01/20 00:10:28;;;;;;;4.03;3.93;;;16.50;64.50;;;;;;5079567;28;43525;-75
2023/01/20 00:12:57;;;;;;;3.60;3.50;;;16.50;64.70;;;;;;5086866;28;43914;-75
2023/01/20 00:15:25;;;;;;;4.03;3.83;;;16.50;64.70;;;;;;5083414;28;43449;-75
2023/01/20 00:17:53;;;;;;;3.87;3.67;;;16.60;64.70;;;;;;5077926;28;44238;-75
2023/01/20 00:20:21;;;;;;;4.00;3.80;;;16.70;64.30;;;;;;5080085;28;43669;-73
2023/01/20 00:22:49;;;;;;;3.90;3.70;;;16.70;63.90;;;;;;5082730;28;43450;-74
2023/01/20 00:25:17;;;;;;;3.87;3.67;;;16.80;64.00;;;;;;5080662;28;44421;-74
2023/01/20 00:27:45;;;;;;;4.03;3.93;;;16.70;64.00;;;;;;5081220;28;45981;-74
2023/01/20 00:30:15;;;;;;;3.40;3.30;;;16.70;64.20;;;;;;5077811;27;43480;-74
2023/01/20 00:32:44;;;;;;;3.90;3.70;;;16.70;64.20;;;;;;5082017;27;43451;-74
2023/01/20 00:35:12;;;;;;;3.77;3.57;;;16.70;64.20;;;;;;5081151;27;43420;-73
2023/01/20 00:37:40;;;;;;;3.80;3.60;;;16.70;64.30;;;;;;5096614;27;43649;-71
2023/01/20 00:40:09;;;;;;;3.40;3.30;;;16.70;64.40;;;;;;5080722;27;44358;-73
2023/01/20 00:42:37;;;;;;;3.53;3.43;;;16.60;64.40;;;;;;5084135;27;44088;-74
2023/01/20 00:45:06;;;;;;;3.60;3.50;;;16.60;64.50;;;;;;5100434;27;43502;-75
2023/01/20 00:47:35;;;;;;;3.60;3.50;;;16.60;64.60;;;;;;5085055;27;47128;-74
2023/01/20 00:50:03;;;;;;;3.60;3.50;;;16.60;64.50;;;;;;5081810;27;44762;-75
2023/01/20 00:52:31;;;;;;;3.73;3.63;;;16.60;64.50;;;;;;5100826;27;43753;-75
2023/01/20 00:54:59;;;;;;;3.67;3.57;;;16.60;64.50;;;;;;5079595;27;43494;-74
2023/01/20 00:57:27;;;;;;;3.77;3.67;;;16.60;64.60;;;;;;5097637;27;43607;-74
2023/01/20 00:59:55;;;;;;;3.80;3.60;;;16.50;64.50;;;;;;5099316;27;43938;-74
2023/01/20 01:02:23;;;;;;;3.60;3.50;;;16.50;64.60;;;;;;5097957;27;43352;-75
2023/01/20 01:04:55;;;;;;;3.57;3.47;;;16.50;64.70;;;;;;5099998;27;43442;-75
2023/01/20 01:07:23;;;;;;;3.30;3.20;;;16.50;64.60;;;;;;5082113;27;46448;-74
2023/01/20 01:09:51;;;;;;;3.80;3.70;;;16.50;64.60;;;;;;5082482;27;45134;-74
2023/01/20 01:12:20;;;;;;;3.80;3.70;;;16.60;64.70;;;;;;5085667;27;43391;-74
2023/01/20 01:14:48;;;;;;;3.97;3.77;;;16.50;64.60;;;;;;5102526;27;43992;-74
2023/01/20 01:17:16;;;;;;;3.40;3.30;;;16.50;64.60;;;;;;5080927;27;45600;-75
2023/01/20 01:19:44;;;;;;;3.90;3.80;;;16.50;64.70;;;;;;5100882;27;43390;-74
2023/01/20 01:22:13;;;;;;;3.63;3.53;;;16.60;64.80;;;;;;5103223;27;43361;-75
2023/01/20 01:24:43;;;;;;;3.90;3.80;;;16.60;64.60;;;;;;5101620;27;43592;-73
2023/01/20 01:27:11;;;;;;;3.47;3.37;;;16.70;64.20;;;;;;5102282;27;43924;-75
2023/01/20 01:29:43;;;;;;;3.90;3.80;;;16.80;63.90;;;;;;5103856;27;44193;-74
2023/01/20 01:32:11;;;;;;;3.53;3.43;;;16.80;63.70;;;;;;5078676;27;43332;-74
2023/01/20 01:34:39;;;;;;;3.77;3.67;;;16.80;63.80;;;;;;5101143;27;44161;-72
2023/01/20 01:37:07;;;;;;;3.80;3.67;;;16.80;64.00;;;;;;5104677;27;43924;-72
2023/01/20 01:39:36;;;;;;;3.90;3.70;;;16.80;64.00;;;;;;5094832;27;43450;-72
2023/01/20 01:42:10;;;;;;;3.50;3.40;;;16.70;63.80;;;;;;5078405;27;43375;-75
2023/01/20 01:44:55;;;;;;;3.70;3.60;;;16.70;64.00;;;;;;5105823;27;44008;-75
2023/01/20 01:47:23;;;;;;;3.40;3.30;;;16.70;64.10;;;;;;5090389;27;43846;-75
2023/01/20 01:49:50;;;;;;;3.33;3.23;;;16.60;64.10;;;;;;5100830;27;43542;-73
2023/01/20 01:52:20;;;;;;;3.57;3.47;;;16.60;64.30;;;;;;5103402;27;43412;-76
2023/01/20 01:54:50;;;;;;;3.70;3.50;;;16.60;64.40;;;;;;5083999;27;43849;-75
2023/01/20 01:57:18;;;;;;;3.70;3.60;;;16.60;64.40;;;;;;5085216;27;45619;-74
2023/01/20 01:59:45;;;;;;;3.50;3.40;;;16.60;64.40;;;;;;5096845;27;44161;-75
2023/01/20 02:02:14;;;;;;;4.00;3.90;;;16.60;64.40;;;;;;5081054;27;43600;-70
2023/01/20 02:04:47;;;;;;;3.70;3.60;;;16.60;64.40;;;;;;5107988;27;44031;-70
2023/01/20 02:07:17;;;;;;;3.57;3.47;;;16.60;64.50;;;;;;5099019;27;43600;-70
2023/01/20 02:09:45;;;;;;;3.93;3.73;;;16.60;64.70;;;;;;5103621;27;43474;-69
2023/01/20 02:12:16;;;;;;;3.57;3.47;;;16.50;64.40;;;;;;5101707;27;43543;-70
2023/01/20 02:14:45;;;;;;;3.70;3.60;;;16.50;64.40;;;;;;5093249;27;43766;-70
2023/01/20 02:17:16;;;;;;;3.53;3.43;;;16.50;64.40;;;;;;5097193;27;44482;-71
2023/01/20 02:20:23;;;;;;;3.80;3.70;;;16.50;64.50;;;;;;5104074;27;43419;-70
2023/01/20 02:22:51;;;;;;;3.60;3.50;;;16.60;64.60;;;;;;5103349;27;43393;-71
2023/01/20 02:25:56;;;;;;;3.60;3.50;;;16.50;64.60;;;;;;5097450;27;43409;-69
2023/01/20 02:28:57;;;;;;;4.00;3.90;;;16.60;64.70;;;;;;5059622;27;43913;-71
2023/01/20 02:31:48;;;;;;;4.20;4.10;;;16.70;64.30;;;;;;5097752;27;43437;-71
2023/01/20 02:34:17;;;;;;;3.57;3.47;;;16.80;63.80;;;;;;5085492;27;43471;-72
2023/01/20 02:36:47;;;;;;;3.37;3.27;;;16.80;63.70;;;;;;5088428;27;43618;-70
2023/01/20 02:39:16;;;;;;;3.70;3.60;;;16.80;63.80;;;;;;5101052;27;43860;-70
2023/01/20 02:41:58;;;;;;;3.53;3.43;;;16.70;63.80;;;;;;5091615;27;43494;-71
2023/01/20 02:44:29;;;;;;;3.63;3.43;;;16.70;64.00;;;;;;5102978;27;43450;-70
2023/01/20 02:47:00;;;;;;;3.20;3.10;;;16.70;63.90;;;;;;5094713;27;43482;-71
2023/01/20 02:49:30;;;;;;;3.20;3.10;;;16.70;64.00;;;;;;5098332;27;43887;-70
2023/01/20 02:51:59;;;;;;;3.90;3.80;;;16.70;64.10;;;;;;5099280;27;43423;-70
2023/01/20 02:54:29;;;;;;;3.50;3.40;;;16.60;64.10;;;;;;5097413;27;43467;-70
2023/01/20 02:56:57;;;;;;;3.70;3.50;;;16.60;64.20;;;;;;5098751;27;43455;-69
2023/01/20 02:59:27;;;;;;;3.63;3.53;;;16.60;64.50;;;;;;5100689;27;43914;-71
2023/01/20 03:01:57;;;;;;;3.43;3.33;;;16.60;64.40;;;;;;5102893;27;43479;-71
2023/01/20 03:04:30;;;;;;;3.67;3.57;;;16.60;64.40;;;;;;5100848;27;43398;-70
2023/01/20 03:06:58;;;;;;;3.27;3.17;;;16.60;64.40;;;;;;5094634;27;43462;-70
2023/01/20 03:09:28;;;;;;;3.67;3.57;;;16.60;64.40;;;;;;5105364;27;43871;-71
2023/01/20 03:11:57;;;;;;;3.60;3.50;;;16.60;64.50;;;;;;5074959;27;45163;-70
2023/01/20 03:14:25;;;;;;;3.27;3.17;;;16.50;64.50;;;;;;5092220;27;43988;-70
2023/01/20 03:16:53;;;;;;;3.50;3.40;;;16.50;64.30;;;;;;5077983;27;43475;-70
2023/01/20 03:19:21;;;;;;;3.43;3.33;;;16.50;64.40;;;;;;5088632;27;43623;-70
2023/01/20 03:21:50;;;;;;;3.40;3.30;;;16.50;64.30;;;;;;5099443;27;43512;-69
2023/01/20 03:24:18;;;;;;;3.47;3.37;;;16.50;64.30;;;;;;5104002;27;44068;-70
2023/01/20 03:26:46;;;;;;;3.40;3.30;;;16.50;64.40;;;;;;5099731;27;43446;-71
2023/01/20 03:29:17;;;;;;;3.63;3.53;;;16.50;64.50;;;;;;5104201;27;43620;-70
2023/01/20 03:31:46;;;;;;;3.20;3.10;;;16.60;64.80;;;;;;5102109;27;43466;-69
2023/01/20 03:34:16;;;;;;;3.70;3.60;;;16.60;64.50;;;;;;5106778;27;43496;-69
2023/01/20 03:36:43;;;;;;;3.67;3.57;;;16.70;64.20;;;;;;5101597;27;43445;-70
2023/01/20 03:39:13;;;;;;;3.50;3.40;;;16.80;63.80;;;;;;5096172;27;43844;-70
2023/01/20 03:41:52;;;;;;;3.50;3.40;;;16.80;63.60;;;;;;5099732;27;43976;-70
2023/01/20 03:44:23;;;;;;;3.60;3.50;;;16.80;63.60;;;;;;5099160;27;44060;-70
2023/01/20 03:46:53;;;;;;;3.57;3.47;;;16.80;63.90;;;;;;5107593;27;43418;-71
2023/01/20 03:49:25;;;;;;;3.80;3.70;;;16.70;63.80;;;;;;5101945;27;43599;-70
2023/01/20 03:51:57;;;;;;;3.33;3.23;;;16.80;63.90;;;;;;5105714;27;43424;-72
2023/01/20 03:54:28;;;;;;;3.60;3.50;;;16.70;63.80;;;;;;5104795;27;43394;-70
2023/01/20 03:57:02;;;;;;;3.43;3.33;;;16.70;64.00;;;;;;5107621;27;43489;-71
2023/01/20 03:59:32;;;;;;;3.47;3.37;;;16.70;64.10;;;;;;5104397;27;43748;-70
2023/01/20 04:02:01;;;;;;;3.60;3.50;;;16.60;64.10;;;;;;5103625;27;43418;-71
2023/01/20 04:04:29;;;;;;;3.67;3.57;;;16.60;64.30;;;;;;5101743;27;43433;-70
2023/01/20 04:06:57;;;;;;;3.60;3.50;;;16.60;64.20;;;;;;5086256;28;43688;-71
2023/01/20 04:09:29;;;;;;;3.47;3.37;;;16.60;64.20;;;;;;5100915;27;43970;-70
2023/01/20 04:11:56;;;;;;;3.53;3.43;;;16.60;64.20;;;;;;5072964;27;43831;-70
2023/01/20 04:14:24;;;;;;;3.70;3.60;;;16.60;64.30;;;;;;5098175;27;43446;-69
2023/01/20 04:16:52;;;;;;;3.30;3.20;;;16.60;64.30;;;;;;5071556;27;43454;-71
2023/01/20 04:19:20;;;;;;;3.63;3.53;;;16.60;64.50;;;;;;5100263;27;43919;-71
2023/01/20 04:21:49;;;;;;;3.57;3.47;;;16.60;64.50;;;;;;5107880;27;43400;-70
2023/01/20 04:24:20;;;;;;;3.97;3.87;;;16.70;64.30;;;;;;5090466;27;43517;-69
2023/01/20 04:26:49;;;;;;;3.70;3.60;;;16.70;63.80;;;;;;5098416;27;43395;-70
2023/01/20 04:29:17;;;;;;;3.63;3.53;;;16.80;63.70;;;;;;5103595;27;43865;-71
2023/01/20 04:31:45;;;;;;;3.67;3.57;;;16.80;63.80;;;;;;5103106;27;43489;-69
2023/01/20 04:34:14;;;;;;;3.40;3.30;;;16.70;63.70;;;;;;5096938;27;43472;-70
2023/01/20 04:36:42;;;;;;;3.63;3.53;;;16.70;64.00;;;;;;5102938;27;43939;-70
2023/01/20 04:39:10;;;;;;;4.00;3.90;;;16.70;63.80;;;;;;5071315;27;44960;-72
2023/01/20 04:41:38;;;;;;;3.47;3.37;;;16.70;63.80;;;;;;5091402;27;43888;-70
2023/01/20 04:44:07;;;;;;;3.40;3.30;;;16.70;63.90;;;;;;5100657;27;43383;-70
2023/01/20 04:46:35;;;;;;;3.53;3.43;;;16.70;64.00;;;;;;5077627;27;43811;-70
2023/01/20 04:49:04;;;;;;;3.70;3.60;;;16.60;64.00;;;;;;5106488;27;43869;-71
2023/01/20 04:51:32;;;;;;;3.70;3.60;;;16.60;64.10;;;;;;5103244;27;43361;-70
2023/01/20 04:54:00;;;;;;;3.73;3.63;;;16.60;64.20;;;;;;5108670;27;43419;-69
2023/01/20 04:56:28;;;;;;;3.53;3.43;;;16.60;64.20;;;;;;5103948;27;43645;-70
2023/01/20 04:58:55;;;;;;;3.67;3.57;;;16.60;64.20;;;;;;5071287;27;45739;-70
2023/01/20 05:01:25;;;;;;;3.47;3.37;;;16.60;64.30;;;;;;5099281;27;43439;-70
2023/01/20 05:03:53;;;;;;;3.90;3.70;;;16.50;64.20;;;;;;5089106;27;43419;-71
2023/01/20 05:06:21;;;;;;;3.77;3.67;;;16.50;64.40;;;;;;5070004;27;43559;-70
2023/01/20 05:08:49;;;;;;;4.10;3.90;;;16.50;64.50;;;;;;5107146;27;43761;-71
2023/01/20 05:11:18;;;;;;;4.00;3.80;;;16.60;64.60;;;;;;5098283;27;43734;-69
2023/01/20 05:13:46;;;;;;;4.03;3.83;;;16.70;64.20;;;;;;5100193;27;43384;-70
2023/01/20 05:16:14;;;;;;;3.80;3.70;;;16.70;63.80;;;;;;5100614;27;43518;-71
2023/01/20 05:18:43;;;;;;;3.90;3.70;;;16.70;63.70;;;;;;5106384;27;43598;-70
2023/01/20 05:21:11;;;;;;;4.63;4.33;;;16.70;63.80;;;;;;5097516;27;43380;-71
2023/01/20 05:23:39;;;;;;;4.37;4.07;;;16.70;63.90;;;;;;5071525;27;43465;-69
2023/01/20 05:26:06;;;;;;;4.77;4.47;;;16.70;64.00;;;;;;5096611;27;43507;-69
2023/01/20 05:28:34;;;;;;;4.20;3.90;;;16.70;63.90;;;;;;5086345;27;45079;-70
2023/01/20 05:31:02;;;;;;;4.90;4.50;;;16.70;63.90;;;;;;5094112;27;43497;-70
2023/01/20 05:33:31;;;;;;;4.50;4.23;;;16.70;64.00;;;;;;5081961;27;43446;-72
2023/01/20 05:36:04;;;;;;;4.83;4.53;;;16.70;64.00;;;;;;5102252;27;43803;-70
2023/01/20 05:38:31;;;;;;;4.87;4.47;;;16.70;64.10;;;;;;5099116;27;43930;-69
2023/01/20 05:41:00;;;;;;;5.03;4.63;;;16.60;64.10;;;;;;5095160;27;43751;-71
2023/01/20 05:43:28;;;;;;;4.47;4.17;;;16.60;64.00;;;;;;5103945;27;43391;-70
2023/01/20 05:45:56;;;;;;;5.00;4.50;;;16.70;64.10;;;;;;5092196;27;43533;-70
2023/01/20 05:48:23;;;;;;;4.60;4.30;;;16.60;64.00;;;;;;5090840;27;43598;-71
2023/01/20 05:50:51;;;;;;;5.00;4.63;;;16.60;64.00;;;;;;5086820;27;45118;-69
2023/01/20 05:53:21;;;;;;;5.10;4.70;;;16.60;64.10;;;;;;5080907;27;43466;-71
2023/01/20 05:55:49;;;;;;;4.87;4.47;;;16.60;64.10;;;;;;5106449;27;43498;-70
2023/01/20 05:58:17;;;;;;;4.97;4.57;;;16.60;64.20;;;;;;5101813;27;43911;-69
2023/01/20 06:00:45;;;;;;;5.07;4.57;;;16.70;64.10;;;;;;5100774;27;43513;-70
2023/01/20 06:03:12;;;;;;;4.70;4.30;;;16.80;63.70;;;;;;5093178;27;43973;-71
2023/01/20 06:05:40;;;;;;;4.73;4.33;;;16.80;63.50;;;;;;5105085;27;43807;-70
2023/01/20 06:08:08;;;;;;;4.87;4.40;;;16.80;63.60;;;;;;5078417;27;47052;-72
2023/01/20 06:10:38;;;;;;;5.37;4.87;;;16.80;63.70;;;;;;5095458;27;43506;-69
2023/01/20 06:13:05;;;;;;;5.30;4.80;;;16.70;63.80;;;;;;5095011;27;43422;-69
2023/01/20 06:15:33;;;;;;;4.87;4.47;;;16.70;63.70;;;;;;5080491;27;43605;-71
2023/01/20 06:18:01;;;;;;;4.77;4.37;;;16.70;63.70;;;;;;5094072;27;43734;-70
2023/01/20 06:20:29;;;;;;;5.43;4.93;;;16.70;63.80;;;;;;5102789;27;43439;-70
2023/01/20 06:22:57;;;;;;;5.47;4.97;;;16.70;63.90;;;;;;5103409;27;43812;-70
2023/01/20 06:25:25;;;;;;;5.60;5.00;;;16.70;64.00;;;;;;5083120;27;43570;-70
2023/01/20 06:27:54;;;;;;;4.63;4.23;;;16.70;64.80;;;;;;5094723;27;43925;-70
2023/01/20 06:30:22;;;;;;;5.60;5.20;;;16.60;64.20;;;;;;5101355;27;43457;-70
2023/01/20 06:32:50;;;;;;;5.30;4.80;;;16.60;64.00;;;;;;5094603;27;43459;-70
2023/01/20 06:35:18;;;;;;;4.50;4.20;;;16.60;64.00;;;;;;5098888;27;43489;-71
2023/01/20 06:37:46;;;;;;;5.00;4.60;;;16.60;64.10;;;;;;5106169;27;43914;-70
2023/01/20 06:40:14;;;;;;;5.03;4.73;;;16.60;64.10;;;;;;5095687;27;43460;-71
2023/01/20 06:42:42;;;;;;;5.17;4.77;;;16.60;64.10;;;;;;5102229;27;43445;-71
2023/01/20 06:45:11;;;;;;;5.00;4.60;;;16.60;64.10;;;;;;5096795;27;43452;-71
2023/01/20 06:47:40;;;;;;;4.93;4.53;;;16.60;64.30;;;;;;5106612;27;43761;-71
2023/01/20 06:50:09;;;;;;;5.47;5.07;;;16.70;64.20;;;;;;5098374;27;43434;-71
2023/01/20 06:52:36;;;;;;;4.87;4.57;;;16.80;63.90;;;;;;5098306;27;43357;-70
2023/01/20 06:55:05;;;;;;;4.60;4.30;;;16.80;63.40;;;;;;5080251;27;44032;-70
2023/01/20 06:57:33;;;;;;;5.00;4.50;;;16.80;63.30;;;;;;5104237;27;43752;-70
2023/01/20 07:00:01;;;;;;;4.67;4.33;;;16.80;63.40;;;;;;5101042;27;43502;-70
2023/01/20 07:02:30;;;;;;;4.57;4.27;;;16.80;63.60;;;;;;5100986;27;43553;-69
2023/01/20 07:04:59;;;;;;;5.17;4.77;;;16.80;63.70;;;;;;5106352;27;43543;-71
2023/01/20 07:07:27;;;;;;;4.70;4.40;;;16.80;63.70;;;;;;5101067;27;43583;-71
2023/01/20 07:09:55;;;;;;;5.53;5.13;;;16.70;63.70;;;;;;5101426;27;43787;-70
2023/01/20 07:12:23;;;;;;;4.90;4.60;;;16.70;63.80;;;;;;5103704;27;44006;-70
2023/01/20 07:14:50;;;;;;;5.57;4.97;;;16.70;63.80;;;;;;5105903;27;43464;-70
2023/01/20 07:17:18;;;;;;;5.00;4.60;;;16.70;64.00;;;;;;5101689;27;43916;-70
2023/01/20 07:19:48;;;;;;;4.73;4.43;;;16.60;63.90;;;;;;5104571;27;43474;-69
2023/01/20 07:22:15;;;;;;;5.00;4.60;;;16.60;64.00;;;;;;5103781;27;43909;-70
2023/01/20 07:24:43;;;;;;;4.93;4.63;;;16.60;64.10;;;;;;5100180;27;43419;-71
2023/01/20 07:27:11;;;;;;;5.00;4.70;;;16.60;64.20;;;;;;5101653;27;43954;-70
2023/01/20 07:29:39;;;;;;;4.50;4.27;;;16.60;64.20;;;;;;5105269;27;44026;-71
2023/01/20 07:32:07;;;;;;;5.30;4.80;;;16.60;64.30;;;;;;5100059;27;43451;-70
2023/01/20 07:34:35;;;;;;;5.10;4.77;;;16.60;64.30;;;;;;5101703;27;43461;-69
2023/01/20 07:37:04;;;;;;;4.73;4.47;;;16.60;64.30;;;;;;5104450;27;43926;-71
2023/01/20 07:39:32;;;;;;;5.17;4.67;;;16.60;64.40;;;;;;5103409;27;43390;-72
2023/01/20 07:42:00;;;;;;;4.87;4.57;;;16.60;64.40;;;;;;5100090;27;43326;-69
2023/01/20 07:44:28;;;;;;;4.97;4.57;;;16.80;64.10;;;;;;5103665;27;43989;-70
2023/01/20 07:46:56;;;;;;;4.53;4.23;;;16.90;63.60;;;;;;5104223;27;43857;-70
2023/01/20 07:49:24;;;;;;;5.17;4.77;;;17.10;63.30;;;;;;5102102;27;43430;-69
2023/01/20 07:51:52;;;;;;;4.87;4.57;;;17.30;62.80;;;;;;5099098;27;43380;-70
2023/01/20 07:54:21;;;;;;;4.57;4.27;;;17.50;62.30;;;;;;5097564;27;43465;-70
2023/01/20 07:56:49;;;;;;;4.77;4.47;;;17.60;61.80;;;;;;5100735;27;43907;-71
2023/01/20 07:59:17;;;;;;;4.30;4.00;;;17.70;61.40;;;;;;5101203;27;43519;-70
2023/01/20 08:01:45;;;;;;;5.03;4.67;;;17.80;61.20;;;;;;5103669;27;43458;-70
2023/01/20 08:04:13;;;;;;;4.80;4.47;;;17.90;60.90;;;;;;5102997;27;43347;-70
2023/01/20 08:06:41;;;;;;;4.53;4.23;;;17.90;60.70;;;;;;5106243;27;43761;-70
2023/01/20 08:09:11;;;;;;;4.70;4.40;;;17.80;60.80;;;;;;5100824;27;43436;-70
2023/01/20 08:11:40;;;;;;;4.53;4.33;;;17.70;60.90;;;;;;5076509;27;43563;-70
2023/01/20 08:14:08;;;;;;;4.30;4.10;;;17.60;61.20;;;;;;5105126;27;43982;-71
2023/01/20 08:16:36;;;;;;;4.80;4.50;;;17.40;61.60;;;;;;5108146;27;44134;-70
2023/01/20 08:19:03;;;;;;;3.90;3.80;;;17.30;62.40;;;;;;5084890;27;44739;-71
2023/01/20 08:21:32;;;;;;;4.33;4.17;;;17.20;62.50;;;;;;5104593;27;44048;-70
2023/01/20 08:24:00;;;;;;;4.43;4.23;;;17.10;62.40;;;;;;5104828;27;43376;-70
2023/01/20 08:26:29;;;;;;;4.33;4.07;;;17.10;62.70;;;;;;5080696;27;46282;-70
2023/01/20 08:29:01;;;;;;;4.23;4.00;;;17.00;62.90;;;;;;5100892;27;43428;-70
2023/01/20 08:31:29;;;;;;;5.07;4.73;;;16.90;63.10;;;;;;5103771;27;43426;-71
2023/01/20 08:33:57;;;;;;;4.90;4.60;;;16.90;63.50;;;;;;5105489;27;43517;-68
2023/01/20 08:36:26;;;;;;;4.73;4.43;;;16.80;63.40;;;;;;5103260;27;43924;-70
2023/01/20 08:38:56;;;;;;;4.87;4.67;;;16.80;63.30;;;;;;5087272;27;44257;-70
2023/01/20 08:41:25;;;;;;;4.97;4.67;;;16.80;63.40;;;;;;5099970;27;43393;-70
2023/01/20 08:43:53;;;;;;;4.37;4.10;;;16.80;63.60;;;;;;5096674;27;43542;-72
2023/01/20 08:46:22;;;;;;;4.80;4.50;;;16.80;63.70;;;;;;5105707;27;43840;-69
2023/01/20 08:48:50;;;;;;;4.37;4.17;;;16.70;63.80;;;;;;5104153;27;43465;-70
2023/01/20 08:51:19;;;;;;;4.20;4.00;;;16.70;64.10;;;;;;5082817;27;43382;-70
2023/01/20 08:53:48;;;;;;;4.20;4.00;;;16.80;63.90;;;;;;5096301;27;43738;-70
2023/01/20 08:56:16;;;;;;;4.30;4.10;;;16.90;63.60;;;;;;5097868;27;43932;-70
2023/01/20 08:58:44;;;;;;;4.33;4.03;;;17.00;63.20;;;;;;5083236;27;46148;-69
2023/01/20 09:01:13;;;;;;;4.40;4.20;;;17.00;63.10;;;;;;5081659;27;43474;-70
2023/01/20 09:03:42;;;;;;;4.50;4.30;;;16.90;63.10;;;;;;5106586;27;43347;-71
2023/01/20 09:06:30;;;;;;;4.17;3.97;;;16.90;63.60;;;;;;5074629;27;45278;-69
2023/01/20 09:08:58;;;;;;;4.60;4.40;;;16.90;63.40;;;;;;5102180;27;43438;-70
2023/01/20 09:11:26;;;;;;;4.27;4.07;;;16.90;63.50;;;;;;5102797;27;43407;-69
2023/01/20 09:13:54;;;;;;;4.50;4.20;;;16.80;63.50;;;;;;5103902;27;43506;-71
2023/01/20 09:16:22;;;;;;;4.60;4.40;;;16.80;63.60;;;;;;5085025;27;45257;-71
2023/01/20 09:18:52;;;;;;;4.63;4.40;;;16.80;63.80;;;;;;5093591;27;43419;-71
2023/01/20 09:21:19;;;;;;;4.37;4.17;;;16.70;64.00;;;;;;5101833;27;44006;-71
2023/01/20 09:23:47;;;;;;;4.30;4.10;;;16.70;63.90;;;;;;5102505;27;43483;-71
2023/01/20 09:26:15;;;;;;;4.90;4.60;;;16.70;63.90;;;;;;5097681;27;43931;-70
2023/01/20 09:29:07;;;;;;;4.70;4.50;;;16.70;63.90;;;;;;5099315;27;43630;-70
2023/01/20 09:31:35;;;;;;;4.47;4.17;;;16.70;64.00;;;;;;5079157;28;43435;-70
2023/01/20 09:34:05;;;;;;;4.53;4.33;;;16.70;64.00;;;;;;5096192;27;43440;-70
2023/01/20 09:36:33;;;;;;;4.80;4.50;;;16.60;64.20;;;;;;5102660;27;44110;-70
2023/01/20 09:44:41;;;;;;;4.10;3.90;;;16.60;64.10;;;;;;5106306;27;43873;-70
2023/01/20 09:47:24;;;;;;;4.50;4.23;;;16.60;64.10;;;;;;5092915;27;43655;-70
2023/01/20 09:53:16;;;;;;;4.17;3.97;;;16.60;64.30;;;;;;5101113;27;43363;-70
2023/01/20 09:55:47;;;;;;;4.37;4.17;;;16.60;64.40;;;;;;5097462;27;43511;-69
2023/01/20 09:58:20;;;;;;;4.50;4.30;;;16.70;64.10;;;;;;5086326;27;45144;-70
2023/01/20 10:00:51;;;;;;;4.30;4.10;;;16.90;63.80;;;;;;5103093;27;43451;-70
2023/01/20 10:03:21;;;;;;;4.43;4.20;;;16.90;63.40;;;;;;5099237;27;43462;-70
2023/01/20 10:05:51;;;;;;;4.23;4.03;;;16.90;63.40;;;;;;5101575;27;43439;-70
2023/01/20 10:08:20;;;;;;;4.47;4.23;;;16.80;63.50;;;;;;5099888;27;44067;-71
2023/01/20 10:10:49;;;;;;;4.50;4.20;;;16.80;63.70;;;;;;5083637;27;43351;-69
2023/01/20 10:13:20;;;;;;;4.03;3.83;;;16.90;63.70;;;;;;5105793;27;43979;-70
2023/01/20 10:15:49;;;;;;;4.30;4.07;;;16.80;63.70;;;;;;5103119;27;43454;-69
2023/01/20 10:18:19;;;;;;;4.23;4.03;;;16.80;63.80;;;;;;5100137;27;43928;-69
2023/01/20 10:20:49;;;;;;;4.57;4.37;;;16.70;63.80;;;;;;5103515;27;43566;-70
2023/01/20 10:23:21;;;;;;;4.53;4.33;;;16.70;63.90;;;;;;5086282;27;43959;-71
2023/01/20 10:25:50;;;;;;;4.50;4.33;;;16.70;64.20;;;;;;5084938;27;43546;-69
2023/01/20 10:28:26;;;;;;;4.13;3.93;;;16.70;64.10;;;;;;5101678;27;43674;-71
2023/01/20 10:30:54;;;;;;;4.40;4.20;;;16.70;64.10;;;;;;5073672;27;45129;-71
2023/01/20 10:33:25;;;;;;;4.97;4.60;;;16.70;64.10;;;;;;5100608;27;43379;-70
2023/01/20 10:35:54;;;;;;;5.00;4.70;;;16.60;64.10;;;;;;5102917;27;43461;-71
2023/01/20 10:38:26;;;;;;;4.60;4.40;;;16.60;64.10;;;;;;5098186;27;44045;-69
2023/01/20 10:40:57;;;;;;;4.17;3.97;;;16.70;64.40;;;;;;5079731;27;45001;-70
2023/01/20 10:43:25;;;;;;;4.73;4.53;;;16.60;64.40;;;;;;5103037;27;43359;-71
2023/01/20 10:46:01;;;;;;;4.17;3.97;;;16.70;64.30;;;;;;5088510;27;43522;-70
2023/01/20 10:48:52;;;;;;;4.30;4.10;;;16.80;63.90;;;;;;5107784;27;43875;-70
2023/01/20 10:51:21;;;;;;;4.07;3.97;;;16.80;63.80;;;;;;5104414;27;43406;-70
2023/01/20 10:53:58;;;;;;;3.87;3.67;;;16.80;63.80;;;;;;5085185;27;43526;-69
2023/01/20 10:56:35;;;;;;;4.20;4.00;;;16.80;63.90;;;;;;5105133;27;43442;-72
2023/01/20 10:59:08;;;;;;;4.57;4.37;;;16.70;64.00;;;;;;5101357;27;43832;-69
2023/01/20 11:01:36;;;;;;;3.83;3.67;;;16.70;63.90;;;;;;5104802;27;43430;-71
2023/01/20 11:04:04;;;;;;;4.17;4.00;;;16.70;63.90;;;;;;5102431;27;43488;-70
2023/01/20 11:06:32;;;;;;;4.00;3.90;;;16.70;64.00;;;;;;5086608;27;43554;-70
2023/01/20 11:09:10;;;;;;;4.30;4.10;;;16.70;64.10;;;;;;5098089;27;43592;-70
2023/01/20 11:11:38;;;;;;;4.20;4.00;;;16.70;64.10;;;;;;5101891;27;43876;-70
2023/01/20 11:14:08;;;;;;;4.07;3.87;;;16.70;64.30;;;;;;5090714;27;43494;-71
2023/01/20 11:16:35;;;;;;;3.83;3.63;;;16.70;64.30;;;;;;5107637;27;43980;-70
2023/01/20 11:19:04;;;;;;;3.80;3.70;;;16.80;64.00;;;;;;5101680;27;43910;-70
2023/01/20 11:21:35;;;;;;;3.90;3.80;;;16.80;63.90;;;;;;5107271;27;43407;-72
2023/01/20 11:24:09;;;;;;;4.00;3.90;;;16.80;63.90;;;;;;5087942;27;44003;-70
2023/01/20 11:26:37;;;;;;;3.93;3.73;;;16.80;64.00;;;;;;5104977;27;43434;-71
2023/01/20 11:29:26;;;;;;;3.70;3.60;;;16.70;64.00;;;;;;5108271;27;43909;-71
2023/01/20 11:31:54;;;;;;;3.83;3.73;;;16.70;64.00;;;;;;5086298;27;45395;-69
2023/01/20 11:34:24;;;;;;;3.53;3.43;;;16.70;64.00;;;;;;5099660;27;43473;-69
2023/01/20 11:37:14;;;;;;;3.93;3.80;;;16.70;64.00;;;;;;5107161;27;44001;-70
2023/01/20 11:39:44;;;;;;;4.00;3.90;;;16.70;64.10;;;;;;5097072;27;43563;-70
2023/01/20 11:42:15;;;;;;;3.83;3.70;;;16.70;64.10;;;;;;5078956;27;43489;-70
2023/01/20 11:44:43;;;;;;;3.50;3.40;;;16.70;64.10;;;;;;5106437;27;43498;-71
2023/01/20 11:47:32;;;;;;;3.87;3.77;;;16.70;64.30;;;;;;5104638;27;43412;-71
2023/01/20 11:50:23;;;;;;;3.63;3.53;;;16.70;64.20;;;;;;5088183;27;43925;-70
2023/01/20 11:52:51;;;;;;;3.83;3.63;;;16.70;64.20;;;;;;5105149;27;43533;-70
2023/01/20 11:55:22;;;;;;;3.43;3.30;;;16.70;64.20;;;;;;5072150;28;43451;-70
2023/01/20 11:57:52;;;;;;;3.57;3.47;;;16.70;64.20;;;;;;5084319;27;43563;-72
2023/01/20 12:00:31;;;;;;;3.80;3.70;;;16.70;64.20;;;;;;5105508;27;43935;-70
2023/01/20 12:03:00;;;;;;;3.70;3.50;;;16.60;64.30;;;;;;5095688;27;43936;-71
2023/01/20 12:05:30;;;;;;;3.47;3.37;;;16.70;64.40;;;;;;5084332;27;43453;-70
2023/01/20 12:07:59;;;;;;;3.60;3.40;;;16.80;64.10;;;;;;5107294;27;43903;-70
2023/01/20 12:10:29;;;;;;;3.60;3.50;;;16.90;63.70;;;;;;5094185;27;44005;-70
2023/01/20 12:12:58;;;;;;;3.20;3.10;;;16.90;63.50;;;;;;5082752;27;45217;-71
2023/01/20 12:15:27;;;;;;;3.63;3.53;;;16.90;63.50;;;;;;5102736;27;43603;-71
2023/01/20 12:17:56;;;;;;;3.70;3.60;;;16.80;63.60;;;;;;5103224;27;43404;-71
2023/01/20 12:20:26;;;;;;;3.50;3.40;;;16.80;63.70;;;;;;5105431;27;43883;-71
2023/01/20 12:23:00;;;;;;;3.70;3.50;;;16.80;63.70;;;;;;5100104;27;43521;-71
2023/01/20 12:25:30;;;;;;;3.57;3.47;;;16.80;63.70;;;;;;5105589;27;43870;-70
2023/01/20 12:28:03;;;;;;;3.20;3.10;;;16.80;63.80;;;;;;5101506;27;43777;-70
2023/01/20 12:30:50;;;;;;;3.40;3.30;;;16.80;64.00;;;;;;5101369;27;43760;-69
2023/01/20 12:33:20;;;;;;;3.90;3.70;;;16.70;64.00;;;;;;5104500;27;44000;-71
2023/01/20 12:36:19;;;;;;;3.73;3.60;;;16.70;64.10;;;;;;5105932;27;44065;-70
2023/01/20 12:39:11;;;;;;;3.20;3.10;;;16.70;64.10;;;;;;5088655;27;43459;-72
2023/01/20 12:42:09;;;;;;;3.40;3.30;;;16.70;64.10;;;;;;5065598;27;45518;-70
2023/01/20 12:44:38;;;;;;;3.57;3.37;;;16.70;64.20;;;;;;5099634;27;43394;-71
2023/01/20 12:47:11;;;;;;;3.37;3.17;;;16.70;64.20;;;;;;5108239;27;43429;-70
2023/01/20 12:49:46;;;;;;;3.40;3.30;;;16.60;64.30;;;;;;5084082;28;43429;-70
2023/01/20 12:52:22;;;;;;;3.10;3.00;;;16.70;64.50;;;;;;5099478;27;43940;-70
2023/01/20 12:55:03;;;;;;;3.27;3.17;;;16.70;64.10;;;;;;5079224;27;44688;-71
2023/01/20 12:57:42;;;;;;;3.53;3.27;;;16.80;63.90;;;;;;5098488;27;43658;-71
2023/01/20 13:00:26;;;;;;;3.40;3.23;;;16.80;63.90;;;;;;5093510;27;43474;-70
2023/01/20 13:03:14;;;;;;;3.43;3.33;;;16.80;64.00;;;;;;5099683;27;43857;-70
2023/01/20 13:05:54;;;;;;;3.60;3.40;;;16.70;64.00;;;;;;5097422;27;43591;-71
2023/01/20 13:08:23;;;;;;;3.53;3.33;;;16.70;64.10;;;;;;5090487;27;43434;-71
2023/01/20 13:11:00;;;;;;;3.57;3.47;;;16.70;64.10;;;;;;5089446;27;43446;-72
2023/01/20 13:13:39;;;;;;;3.10;3.00;;;16.70;64.10;;;;;;5090585;27;43936;-71